sensor_id;sensor_type;location;lat;lon;timestamp;temperature;humidity
14934;DHT22;7560;51.364;12.384;2023-09-19T00:01:18;18.30;99.90
14934;DHT22;7560;51.364;12.384;2023-09-19T00:06:22;18.20;99.90
14934;DHT22;7560;51.364;12.384;2023-09-19T00:11:23;18.10;99.90
14934;DHT22;7560;51.364;12.384;2023-09-19T00:16:27;18.00;99.90
14934;DHT22;7560;51.364;12.384;2023-09-19T00:21:31;17.90;99.90
14934;DHT22;7560;51.364;12.384;2023-09-19T00:26:33;17.90;99.90
14934;DHT22;7560;51.364;12.384;2023-09-19T00:31:35;17.90;99.90
14934;DHT22;7560;51.364;12.384;2023-09-19T00:36:39;17.80;99.90
14934;DHT22;7560;51.364;12.384;2023-09-19T00:41:41;17.80;99.90
14934;DHT22;7560;51.364;12.384;2023-09-19T00:46:43;17.70;99.90
14934;DHT22;7560;51.364;12.384;2023-09-19T00:51:45;17.70;99.90
14934;DHT22;7560;51.364;12.384;2023-09-19T00:56:48;17.60;99.90
14934;DHT22;7560;51.364;12.384;2023-09-19T01:01:53;17.60;99.90
14934;DHT22;7560;51.364;12.384;2023-09-19T01:06:56;17.60;99.90
14934;DHT22;7560;51.364;12.384;2023-09-19T01:12:02;17.50;99.90
14934;DHT22;7560;51.364;12.384;2023-09-19T01:17:18;17.50;99.90
14934;DHT22;7560;51.364;12.384;2023-09-19T01:22:37;17.50;99.90
14934;DHT22;7560;51.364;12.384;2023-09-19T01:33:09;17.40;99.90
14934;DHT22;7560;51.364;12.384;2023-09-19T01:38:12;17.30;99.90
14934;DHT22;7560;51.364;12.384;2023-09-19T01:43:38;17.30;99.90
14934;DHT22;7560;51.364;12.384;2023-09-19T01:54:11;17.20;99.90
14934;DHT22;7560;51.364;12.384;2023-09-19T01:59:17;17.20;99.90
14934;DHT22;7560;51.364;12.384;2023-09-19T02:04:22;17.10;99.90
14934;DHT22;7560;51.364;12.384;2023-09-19T02:09:25;17.10;99.90
14934;DHT22;7560;51.364;12.384;2023-09-19T02:14:27;17.00;99.90
14934;DHT22;7560;51.364;12.384;2023-09-19T02:19:31;17.00;99.90
14934;DHT22;7560;51.364;12.384;2023-09-19T02:24:38;17.10;99.90
14934;DHT22;7560;51.364;12.384;2023-09-19T02:29:39;17.10;99.90
14934;DHT22;7560;51.364;12.384;2023-09-19T02:34:42;17.20;99.90
14934;DHT22;7560;51.364;12.384;2023-09-19T02:39:45;17.30;99.90
14934;DHT22;7560;51.364;12.384;2023-09-19T02:44:46;17.50;99.90
14934;DHT22;7560;51.364;12.384;2023-09-19T02:49:49;17.60;99.90
14934;DHT22;7560;51.364;12.384;2023-09-19T02:54:52;17.60;99.90
14934;DHT22;7560;51.364;12.384;2023-09-19T02:59:53;17.60;99.90
14934;DHT22;7560;51.364;12.384;2023-09-19T03:04:56;17.70;99.90
14934;DHT22;7560;51.364;12.384;2023-09-19T03:09:58;17.70;99.90
14934;DHT22;7560;51.364;12.384;2023-09-19T03:14:59;17.70;99.90
14934;DHT22;7560;51.364;12.384;2023-09-19T03:20:02;17.70;99.90
14934;DHT22;7560;51.364;12.384;2023-09-19T03:25:06;17.70;99.90
14934;DHT22;7560;51.364;12.384;2023-09-19T03:30:09;17.80;99.90
14934;DHT22;7560;51.364;12.384;2023-09-19T03:35:15;17.70;99.90
14934;DHT22;7560;51.364;12.384;2023-09-19T03:40:16;17.70;99.90
14934;DHT22;7560;51.364;12.384;2023-09-19T03:45:18;17.80;99.90
14934;DHT22;7560;51.364;12.384;2023-09-19T03:50:20;17.60;99.90
14934;DHT22;7560;51.364;12.384;2023-09-19T03:55:22;17.60;99.90
14934;DHT22;7560;51.364;12.384;2023-09-19T04:00:24;17.60;99.90
14934;DHT22;7560;51.364;12.384;2023-09-19T04:05:27;17.50;99.90
14934;DHT22;7560;51.364;12.384;2023-09-19T04:10:29;17.40;99.90
14934;DHT22;7560;51.364;12.384;2023-09-19T04:15:31;17.30;99.90
14934;DHT22;7560;51.364;12.384;2023-09-19T04:20:33;17.30;99.90
14934;DHT22;7560;51.364;12.384;2023-09-19T04:25:35;17.30;99.90
14934;DHT22;7560;51.364;12.384;2023-09-19T04:30:37;17.20;99.90
14934;DHT22;7560;51.364;12.384;2023-09-19T04:35:42;17.20;99.90
14934;DHT22;7560;51.364;12.384;2023-09-19T04:40:44;17.20;99.90
14934;DHT22;7560;51.364;12.384;2023-09-19T04:45:46;17.20;99.90
14934;DHT22;7560;51.364;12.384;2023-09-19T04:50:48;17.20;99.90
14934;DHT22;7560;51.364;12.384;2023-09-19T04:55:51;17.10;99.90
14934;DHT22;7560;51.364;12.384;2023-09-19T05:00:58;17.10;99.90
14934;DHT22;7560;51.364;12.384;2023-09-19T05:06:00;17.10;99.90
14934;DHT22;7560;51.364;12.384;2023-09-19T05:11:02;17.10;99.90
14934;DHT22;7560;51.364;12.384;2023-09-19T05:16:04;17.00;99.90
14934;DHT22;7560;51.364;12.384;2023-09-19T05:21:06;16.90;99.90
14934;DHT22;7560;51.364;12.384;2023-09-19T05:26:09;16.90;99.90
14934;DHT22;7560;51.364;12.384;2023-09-19T05:31:12;17.00;99.90
14934;DHT22;7560;51.364;12.384;2023-09-19T05:36:14;17.00;99.90
14934;DHT22;7560;51.364;12.384;2023-09-19T05:41:17;17.00;99.90
14934;DHT22;7560;51.364;12.384;2023-09-19T05:46:19;16.90;99.90
14934;DHT22;7560;51.364;12.384;2023-09-19T05:51:21;16.90;99.90
14934;DHT22;7560;51.364;12.384;2023-09-19T05:56:24;16.90;99.90
14934;DHT22;7560;51.364;12.384;2023-09-19T06:01:25;16.90;99.90
14934;DHT22;7560;51.364;12.384;2023-09-19T06:06:28;16.90;99.90
14934;DHT22;7560;51.364;12.384;2023-09-19T06:11:30;16.90;99.90
14934;DHT22;7560;51.364;12.384;2023-09-19T06:16:34;17.00;99.90
14934;DHT22;7560;51.364;12.384;2023-09-19T06:21:36;17.00;99.90
14934;DHT22;7560;51.364;12.384;2023-09-19T06:26:38;17.10;99.90
14934;DHT22;7560;51.364;12.384;2023-09-19T06:31:40;17.20;99.90
14934;DHT22;7560;51.364;12.384;2023-09-19T06:36:42;17.40;99.90
14934;DHT22;7560;51.364;12.384;2023-09-19T06:41:44;17.60;99.90
14934;DHT22;7560;51.364;12.384;2023-09-19T06:46:46;17.70;99.90
14934;DHT22;7560;51.364;12.384;2023-09-19T06:51:54;17.90;99.90
14934;DHT22;7560;51.364;12.384;2023-09-19T06:56:59;18.10;99.90
14934;DHT22;7560;51.364;12.384;2023-09-19T07:02:01;18.40;99.90
14934;DHT22;7560;51.364;12.384;2023-09-19T07:07:03;18.50;99.90
14934;DHT22;7560;51.364;12.384;2023-09-19T07:12:06;18.80;99.90
14934;DHT22;7560;51.364;12.384;2023-09-19T07:17:07;18.90;99.90
14934;DHT22;7560;51.364;12.384;2023-09-19T07:22:10;18.90;99.90
14934;DHT22;7560;51.364;12.384;2023-09-19T07:27:12;18.90;99.90
14934;DHT22;7560;51.364;12.384;2023-09-19T07:32:14;19.00;99.90
14934;DHT22;7560;51.364;12.384;2023-09-19T07:37:18;18.90;99.90
14934;DHT22;7560;51.364;12.384;2023-09-19T07:42:20;19.00;99.90
14934;DHT22;7560;51.364;12.384;2023-09-19T07:47:22;19.20;99.90
14934;DHT22;7560;51.364;12.384;2023-09-19T07:52:24;19.30;99.90
14934;DHT22;7560;51.364;12.384;2023-09-19T07:57:27;19.70;99.90
14934;DHT22;7560;51.364;12.384;2023-09-19T08:02:34;20.00;99.90
14934;DHT22;7560;51.364;12.384;2023-09-19T08:07:38;20.30;99.90
14934;DHT22;7560;51.364;12.384;2023-09-19T08:12:40;20.00;99.90
14934;DHT22;7560;51.364;12.384;2023-09-19T08:17:48;19.90;99.90
14934;DHT22;7560;51.364;12.384;2023-09-19T08:22:52;19.80;99.90
14934;DHT22;7560;51.364;12.384;2023-09-19T08:27:56;19.70;99.90
14934;DHT22;7560;51.364;12.384;2023-09-19T08:33:01;19.70;99.90
14934;DHT22;7560;51.364;12.384;2023-09-19T08:38:05;19.80;99.90
14934;DHT22;7560;51.364;12.384;2023-09-19T08:43:07;19.80;99.90
14934;DHT22;7560;51.364;12.384;2023-09-19T08:48:28;19.60;99.90
14934;DHT22;7560;51.364;12.384;2023-09-19T08:53:42;19.40;99.90
14934;DHT22;7560;51.364;12.384;2023-09-19T08:59:02;19.50;99.90
14934;DHT22;7560;51.364;12.384;2023-09-19T09:04:08;19.70;99.90
14934;DHT22;7560;51.364;12.384;2023-09-19T09:09:10;19.90;99.90
14934;DHT22;7560;51.364;12.384;2023-09-19T09:14:13;20.20;99.90
14934;DHT22;7560;51.364;12.384;2023-09-19T09:19:15;20.20;99.90
14934;DHT22;7560;51.364;12.384;2023-09-19T09:24:30;20.30;99.90
14934;DHT22;7560;51.364;12.384;2023-09-19T09:29:48;20.40;99.90
14934;DHT22;7560;51.364;12.384;2023-09-19T09:34:59;20.60;99.90
14934;DHT22;7560;51.364;12.384;2023-09-19T09:40:03;20.60;99.90
14934;DHT22;7560;51.364;12.384;2023-09-19T09:45:19;20.90;99.90
14934;DHT22;7560;51.364;12.384;2023-09-19T09:50:48;20.60;99.90
14934;DHT22;7560;51.364;12.384;2023-09-19T09:56:04;20.80;99.90
14934;DHT22;7560;51.364;12.384;2023-09-19T10:01:10;20.70;99.90
14934;DHT22;7560;51.364;12.384;2023-09-19T10:06:17;20.60;99.90
14934;DHT22;7560;51.364;12.384;2023-09-19T10:11:24;20.70;99.90
14934;DHT22;7560;51.364;12.384;2023-09-19T10:16:32;20.60;99.90
14934;DHT22;7560;51.364;12.384;2023-09-19T10:21:36;20.50;99.90
14934;DHT22;7560;51.364;12.384;2023-09-19T10:26:38;20.50;99.90
14934;DHT22;7560;51.364;12.384;2023-09-19T10:31:42;20.40;99.90
14934;DHT22;7560;51.364;12.384;2023-09-19T10:36:51;20.10;99.90
14934;DHT22;7560;51.364;12.384;2023-09-19T10:41:55;20.20;99.90
14934;DHT22;7560;51.364;12.384;2023-09-19T10:47:00;20.30;99.90
14934;DHT22;7560;51.364;12.384;2023-09-19T10:52:05;20.20;99.90
14934;DHT22;7560;51.364;12.384;2023-09-19T10:57:10;20.30;99.90
14934;DHT22;7560;51.364;12.384;2023-09-19T11:02:17;20.70;99.90
14934;DHT22;7560;51.364;12.384;2023-09-19T11:07:19;20.80;99.90
14934;DHT22;7560;51.364;12.384;2023-09-19T11:17:49;20.80;99.90
14934;DHT22;7560;51.364;12.384;2023-09-19T11:33:17;20.80;99.90
14934;DHT22;7560;51.364;12.384;2023-09-19T11:43:52;21.00;99.90
14934;DHT22;7560;51.364;12.384;2023-09-19T11:49:09;21.20;99.90
14934;DHT22;7560;51.364;12.384;2023-09-19T11:54:23;21.00;99.90
14934;DHT22;7560;51.364;12.384;2023-09-19T11:59:30;21.10;99.90
14934;DHT22;7560;51.364;12.384;2023-09-19T12:04:40;21.30;99.90
14934;DHT22;7560;51.364;12.384;2023-09-19T12:09:47;21.20;99.90
14934;DHT22;7560;51.364;12.384;2023-09-19T12:14:50;21.10;99.90
14934;DHT22;7560;51.364;12.384;2023-09-19T12:19:53;21.30;99.90
14934;DHT22;7560;51.364;12.384;2023-09-19T12:25:06;21.40;99.90
14934;DHT22;7560;51.364;12.384;2023-09-19T12:30:12;21.70;99.90
14934;DHT22;7560;51.364;12.384;2023-09-19T12:35:32;21.60;99.90
14934;DHT22;7560;51.364;12.384;2023-09-19T12:40:38;21.60;99.90
14934;DHT22;7560;51.364;12.384;2023-09-19T12:45:44;21.60;99.90
14934;DHT22;7560;51.364;12.384;2023-09-19T12:51:19;21.70;99.90
14934;DHT22;7560;51.364;12.384;2023-09-19T12:56:24;21.70;99.90
14934;DHT22;7560;51.364;12.384;2023-09-19T13:01:27;21.80;99.90
14934;DHT22;7560;51.364;12.384;2023-09-19T13:06:36;21.80;99.90
14934;DHT22;7560;51.364;12.384;2023-09-19T13:11:45;22.00;99.90
14934;DHT22;7560;51.364;12.384;2023-09-19T13:22:36;22.30;99.90
14934;DHT22;7560;51.364;12.384;2023-09-19T13:27:39;22.50;99.90
14934;DHT22;7560;51.364;12.384;2023-09-19T13:32:41;22.60;99.90
14934;DHT22;7560;51.364;12.384;2023-09-19T13:37:46;22.80;99.90
14934;DHT22;7560;51.364;12.384;2023-09-19T13:42:50;23.20;99.90
14934;DHT22;7560;51.364;12.384;2023-09-19T13:47:55;23.70;99.90
14934;DHT22;7560;51.364;12.384;2023-09-19T13:52:57;23.60;99.90
14934;DHT22;7560;51.364;12.384;2023-09-19T13:57:59;23.60;99.90
14934;DHT22;7560;51.364;12.384;2023-09-19T14:03:01;23.80;99.90
14934;DHT22;7560;51.364;12.384;2023-09-19T14:08:04;23.80;99.90
14934;DHT22;7560;51.364;12.384;2023-09-19T14:13:06;23.90;99.90
14934;DHT22;7560;51.364;12.384;2023-09-19T14:18:08;23.80;99.90
14934;DHT22;7560;51.364;12.384;2023-09-19T14:23:10;23.70;99.90
14934;DHT22;7560;51.364;12.384;2023-09-19T14:28:12;23.70;99.90
14934;DHT22;7560;51.364;12.384;2023-09-19T14:33:14;24.00;99.90
14934;DHT22;7560;51.364;12.384;2023-09-19T14:38:17;24.20;99.90
14934;DHT22;7560;51.364;12.384;2023-09-19T14:43:19;24.20;99.90
14934;DHT22;7560;51.364;12.384;2023-09-19T14:48:21;24.70;99.90
14934;DHT22;7560;51.364;12.384;2023-09-19T14:53:27;24.70;99.90
14934;DHT22;7560;51.364;12.384;2023-09-19T14:58:30;24.60;99.90
14934;DHT22;7560;51.364;12.384;2023-09-19T15:03:35;24.80;99.90
14934;DHT22;7560;51.364;12.384;2023-09-19T15:08:38;24.60;99.90
14934;DHT22;7560;51.364;12.384;2023-09-19T15:13:41;24.30;99.90
14934;DHT22;7560;51.364;12.384;2023-09-19T15:18:44;24.80;99.90
14934;DHT22;7560;51.364;12.384;2023-09-19T15:23:48;25.10;99.90
14934;DHT22;7560;51.364;12.384;2023-09-19T15:28:50;25.30;99.90
14934;DHT22;7560;51.364;12.384;2023-09-19T15:33:52;25.20;99.90
14934;DHT22;7560;51.364;12.384;2023-09-19T15:39:05;25.40;99.90
14934;DHT22;7560;51.364;12.384;2023-09-19T15:44:15;25.10;99.50
14934;DHT22;7560;51.364;12.384;2023-09-19T15:49:18;24.90;99.40
14934;DHT22;7560;51.364;12.384;2023-09-19T15:54:20;24.80;99.80
14934;DHT22;7560;51.364;12.384;2023-09-19T15:59:22;24.40;99.90
14934;DHT22;7560;51.364;12.384;2023-09-19T16:04:24;23.90;99.90
14934;DHT22;7560;51.364;12.384;2023-09-19T16:09:25;23.40;99.90
14934;DHT22;7560;51.364;12.384;2023-09-19T16:14:27;23.00;99.90
14934;DHT22;7560;51.364;12.384;2023-09-19T16:19:32;22.60;99.90
14934;DHT22;7560;51.364;12.384;2023-09-19T16:24:34;22.20;99.90
14934;DHT22;7560;51.364;12.384;2023-09-19T16:29:35;22.10;99.90
14934;DHT22;7560;51.364;12.384;2023-09-19T16:34:37;21.90;99.90
14934;DHT22;7560;51.364;12.384;2023-09-19T16:39:41;21.80;99.90
14934;DHT22;7560;51.364;12.384;2023-09-19T16:44:44;21.70;99.90
14934;DHT22;7560;51.364;12.384;2023-09-19T16:49:46;21.40;99.90
14934;DHT22;7560;51.364;12.384;2023-09-19T16:54:48;21.20;99.90
14934;DHT22;7560;51.364;12.384;2023-09-19T16:59:50;21.00;99.90
14934;DHT22;7560;51.364;12.384;2023-09-19T17:04:52;20.90;99.90
14934;DHT22;7560;51.364;12.384;2023-09-19T17:09:55;20.70;99.90
14934;DHT22;7560;51.364;12.384;2023-09-19T17:14:57;20.50;99.90
14934;DHT22;7560;51.364;12.384;2023-09-19T17:19:58;20.30;99.90
14934;DHT22;7560;51.364;12.384;2023-09-19T17:25:00;20.20;99.90
14934;DHT22;7560;51.364;12.384;2023-09-19T17:30:04;20.10;99.90
14934;DHT22;7560;51.364;12.384;2023-09-19T17:35:07;19.90;99.90
14934;DHT22;7560;51.364;12.384;2023-09-19T17:40:11;19.80;99.90
14934;DHT22;7560;51.364;12.384;2023-09-19T17:45:12;19.70;99.90
14934;DHT22;7560;51.364;12.384;2023-09-19T17:50:15;19.60;99.90
14934;DHT22;7560;51.364;12.384;2023-09-19T17:55:17;19.50;99.90
14934;DHT22;7560;51.364;12.384;2023-09-19T18:00:19;19.40;99.90
14934;DHT22;7560;51.364;12.384;2023-09-19T18:05:22;19.30;99.90
14934;DHT22;7560;51.364;12.384;2023-09-19T18:11:00;19.20;99.90
14934;DHT22;7560;51.364;12.384;2023-09-19T18:16:06;19.10;99.90
14934;DHT22;7560;51.364;12.384;2023-09-19T18:21:08;19.00;99.90
14934;DHT22;7560;51.364;12.384;2023-09-19T18:26:11;19.00;99.90
14934;DHT22;7560;51.364;12.384;2023-09-19T18:31:14;18.90;99.90
14934;DHT22;7560;51.364;12.384;2023-09-19T18:36:16;18.80;99.90
14934;DHT22;7560;51.364;12.384;2023-09-19T18:41:18;18.80;99.90
14934;DHT22;7560;51.364;12.384;2023-09-19T18:46:20;18.70;99.90
14934;DHT22;7560;51.364;12.384;2023-09-19T18:51:22;18.60;99.90
14934;DHT22;7560;51.364;12.384;2023-09-19T18:56:26;18.50;99.90
14934;DHT22;7560;51.364;12.384;2023-09-19T19:01:39;18.50;99.90
14934;DHT22;7560;51.364;12.384;2023-09-19T19:06:41;18.40;99.90
14934;DHT22;7560;51.364;12.384;2023-09-19T19:11:42;18.30;99.90
14934;DHT22;7560;51.364;12.384;2023-09-19T19:16:44;18.30;99.90
14934;DHT22;7560;51.364;12.384;2023-09-19T19:21:48;18.10;99.90
14934;DHT22;7560;51.364;12.384;2023-09-19T19:26:50;18.10;99.90
14934;DHT22;7560;51.364;12.384;2023-09-19T19:31:51;18.00;99.90
14934;DHT22;7560;51.364;12.384;2023-09-19T19:36:55;17.90;99.90
14934;DHT22;7560;51.364;12.384;2023-09-19T19:41:57;17.90;99.90
14934;DHT22;7560;51.364;12.384;2023-09-19T19:47:00;17.80;99.90
14934;DHT22;7560;51.364;12.384;2023-09-19T19:52:02;17.80;99.90
14934;DHT22;7560;51.364;12.384;2023-09-19T19:57:04;17.70;99.90
14934;DHT22;7560;51.364;12.384;2023-09-19T20:02:06;17.70;99.90
14934;DHT22;7560;51.364;12.384;2023-09-19T20:07:08;17.60;99.90
14934;DHT22;7560;51.364;12.384;2023-09-19T20:12:12;17.50;99.90
14934;DHT22;7560;51.364;12.384;2023-09-19T20:17:14;17.50;99.90
14934;DHT22;7560;51.364;12.384;2023-09-19T20:22:16;17.40;99.90
14934;DHT22;7560;51.364;12.384;2023-09-19T20:27:18;17.30;99.90
14934;DHT22;7560;51.364;12.384;2023-09-19T20:32:20;17.30;99.90
14934;DHT22;7560;51.364;12.384;2023-09-19T20:37:22;17.30;99.90
14934;DHT22;7560;51.364;12.384;2023-09-19T20:42:23;17.20;99.90
14934;DHT22;7560;51.364;12.384;2023-09-19T20:47:25;17.20;99.90
14934;DHT22;7560;51.364;12.384;2023-09-19T20:52:28;17.20;99.90
14934;DHT22;7560;51.364;12.384;2023-09-19T20:57:30;17.20;99.90
14934;DHT22;7560;51.364;12.384;2023-09-19T21:02:32;17.10;99.90
14934;DHT22;7560;51.364;12.384;2023-09-19T21:07:34;17.00;99.90
14934;DHT22;7560;51.364;12.384;2023-09-19T21:12:37;17.00;99.90
14934;DHT22;7560;51.364;12.384;2023-09-19T21:17:38;16.90;99.90
14934;DHT22;7560;51.364;12.384;2023-09-19T21:22:45;16.90;99.90
14934;DHT22;7560;51.364;12.384;2023-09-19T21:27:47;16.80;99.90
14934;DHT22;7560;51.364;12.384;2023-09-19T21:32:48;16.80;99.90
14934;DHT22;7560;51.364;12.384;2023-09-19T21:37:51;16.80;99.90
14934;DHT22;7560;51.364;12.384;2023-09-19T21:42:52;16.80;99.90
14934;DHT22;7560;51.364;12.384;2023-09-19T21:47:54;16.80;99.90
14934;DHT22;7560;51.364;12.384;2023-09-19T21:52:57;16.70;99.90
14934;DHT22;7560;51.364;12.384;2023-09-19T21:58:01;16.70;99.90
14934;DHT22;7560;51.364;12.384;2023-09-19T22:03:06;16.60;99.90
14934;DHT22;7560;51.364;12.384;2023-09-19T22:08:09;16.60;99.90
14934;DHT22;7560;51.364;12.384;2023-09-19T22:13:12;16.60;99.90
14934;DHT22;7560;51.364;12.384;2023-09-19T22:18:16;16.60;99.90
14934;DHT22;7560;51.364;12.384;2023-09-19T22:23:22;16.50;99.90
14934;DHT22;7560;51.364;12.384;2023-09-19T22:28:31;16.50;99.90
14934;DHT22;7560;51.364;12.384;2023-09-19T22:33:37;16.50;99.90
14934;DHT22;7560;51.364;12.384;2023-09-19T22:38:39;16.50;99.90
14934;DHT22;7560;51.364;12.384;2023-09-19T22:43:41;16.50;99.90
14934;DHT22;7560;51.364;12.384;2023-09-19T22:48:50;16.50;99.90
14934;DHT22;7560;51.364;12.384;2023-09-19T22:53:52;16.40;99.90
14934;DHT22;7560;51.364;12.384;2023-09-19T22:58:59;16.40;99.90
14934;DHT22;7560;51.364;12.384;2023-09-19T23:04:03;16.30;99.90
14934;DHT22;7560;51.364;12.384;2023-09-19T23:09:17;16.30;99.90
14934;DHT22;7560;51.364;12.384;2023-09-19T23:14:24;16.30;99.90
14934;DHT22;7560;51.364;12.384;2023-09-19T23:19:36;16.30;99.90
14934;DHT22;7560;51.364;12.384;2023-09-19T23:24:39;16.30;99.90
14934;DHT22;7560;51.364;12.384;2023-09-19T23:29:43;16.20;99.90
14934;DHT22;7560;51.364;12.384;2023-09-19T23:34:45;16.20;99.90
14934;DHT22;7560;51.364;12.384;2023-09-19T23:39:48;16.20;99.90
14934;DHT22;7560;51.364;12.384;2023-09-19T23:44:52;16.30;99.90
14934;DHT22;7560;51.364;12.384;2023-09-19T23:49:56;16.20;99.90
14934;DHT22;7560;51.364;12.384;2023-09-19T23:54:59;16.30;99.90
